Latest Coastal Weather Observations for Troughton Island

IDD60701

Issued at 3:11 pm CST Monday 14 October 2019 (issued every 10 minutes, with the page automatically refreshed every 10 minutes)

About coastal observations | Map of coastal stations | Coastal observations for NT | Marine services | Other Formats
Station Details ID: 001007 Name: TROUGHTON ISLAND Lat: -13.75 Lon: 126.15 Height: 6.0 m
Data from the previous 72 hours. | See also: Recent months at Troughton Island
Date/Time
CST
Wind Sea
Height
m
Swell Vis
km
Cloud Weather Temp
°C
Press
hPa
Rain since
9am
mm
Dir  Spd
kts
Gust
kts
Height
m
Period
s
Dir
14/03:00pm N 10 11 - - - - - - - 30.6 1011.9 0.0
14/02:30pm N 9 11 - - - - - - - 29.8 1012.2 0.0
14/02:00pm NNE 9 12 - - - - - - - 29.9 1012.5 0.0
14/01:30pm NNW 8 11 - - - - - - - 30.4 1012.8 0.0
14/01:00pm NNW 8 11 - - - - - - - 30.9 1013.2 0.0
14/12:30pm NNW 8 10 - - - - - - - 30.2 1013.4 0.0
14/12:00pm WNW 7 9 - - - - - - - 30.0 1013.6 0.0
14/11:30am SW 6 8 - - - - - - - 30.3 1013.8 0.0
14/11:00am SSW 6 7 - - - - - - - 29.9 1013.9 0.0
14/10:30am SSW 5 7 - - - - - - - 29.3 1014.1 0.0
14/10:00am SSW 6 7 - - - - - - - 30.0 1014.0 0.0
14/09:30am SSW 6 7 - - - - - - - 29.3 1013.7 0.0
14/09:00am SW 6 8 - - - - - - - 29.0 1013.4 0.0
14/08:30am SSW 5 6 - - - - - - - 28.7 1013.3 0.0
14/08:00am SE 2 4 - - - - - - - 27.8 1013.3 0.0
14/07:30am WNW 3 4 - - - - - - - 27.1 1012.8 0.0
14/07:00am SSW 5 6 - - - - - - - 26.5 1012.4 0.0
14/06:30am WSW 7 9 - - - - - - - 26.6 1011.8 0.0
14/06:00am W 9 10 - - - - - - - 26.7 1011.2 0.0
14/05:30am W 10 12 - - - - - - - 26.8 1010.7 0.0
14/05:00am WNW 11 12 - - - - - - - 26.8 1010.6 0.0
14/04:30am WNW 10 12 - - - - - - - 26.8 1010.4 0.0
14/04:00am WNW 9 11 - - - - - - - 26.8 1010.5 0.0
14/03:30am WNW 10 11 - - - - - - - 26.8 1010.4 0.0
14/03:00am WNW 11 12 - - - - - - - 27.0 1010.3 0.0
14/02:30am WNW 10 12 - - - - - - - 27.1 1010.5 0.0
14/02:00am WNW 10 12 - - - - - - - 27.1 1010.9 0.0
14/01:30am WNW 11 13 - - - - - - - 27.1 1011.1 0.0
14/01:00am WNW 11 13 - - - - - - - 27.2 1011.3 0.0
14/12:30am NW 13 14 - - - - - - - 27.2 1011.3 0.0
14/12:00am NW 13 15 - - - - - - - 27.2 1011.3 0.0
 
Date/Time
CST
Wind Sea
Height
m
Swell Vis
km
Cloud Weather Temp
°C
Press
hPa
Rain since
9am
mm
Dir  Spd
kts
Gust
kts
Height
m
Period
s
Dir
13/11:30pm WNW 11 12 - - - - - - - 27.2 1011.7 0.0
13/11:00pm WNW 10 11 - - - - - - - 27.3 1011.9 0.0
13/10:30pm WNW 10 11 - - - - - - - 27.2 1011.9 0.0
13/10:00pm WNW 10 12 - - - - - - - 27.2 1011.9 0.0
13/09:30pm NW 10 11 - - - - - - - 27.3 1011.6 0.0
13/09:00pm WNW 10 11 - - - - - - - 27.3 1011.2 0.0
13/08:30pm WNW 11 13 - - - - - - - 27.5 1010.9 0.0
13/08:00pm WNW 11 13 - - - - - - - 27.6 1010.5 0.0
13/07:30pm WNW 12 13 - - - - - - - 27.7 1010.2 0.0
13/07:00pm WNW 13 14 - - - - - - - 28.1 1009.9 0.0
13/06:30pm WNW 13 16 - - - - - - - 28.5 1009.6 0.0
13/06:00pm W 14 16 - - - - - - - 29.5 1009.3 0.0
13/05:30pm WNW 14 16 - - - - - - - 29.9 1009.0 0.0
13/05:00pm WNW 15 18 - - - - - - - 30.3 1009.1 0.0
13/04:30pm WNW 14 17 - - - - - - - 30.4 1009.4 0.0
13/04:00pm WNW 14 16 - - - - - - - 30.8 1009.7 0.0
13/03:30pm WNW 14 16 - - - - - - - 31.1 1009.9 0.0
13/03:00pm WNW 12 14 - - - - - - - 31.4 1010.3 0.0
13/02:30pm WNW 13 15 - - - - - - - 30.9 1010.6 0.0
13/02:00pm W 13 15 - - - - - - - 30.9 1011.0 0.0
13/01:30pm W 12 14 - - - - - - - 30.6 1011.5 0.0
13/01:00pm WSW 12 14 - - - - - - - 30.4 1012.1 0.0
13/12:30pm WSW 11 13 - - - - - - - 30.5 1012.6 0.0
13/12:00pm WSW 11 13 - - - - - - - 31.1 1013.0 0.0
13/11:30am WSW 10 12 - - - - - - - 30.6 1013.3 0.0
13/11:00am SW 9 11 - - - - - - - 29.8 1013.5 0.0
13/10:30am SSW 10 12 - - - - - - - 30.3 1013.6 0.0
13/10:00am SSW 10 12 - - - - - - - 29.6 1013.7 0.0
13/09:30am S 7 8 - - - - - - - 29.5 1013.8 0.0
13/09:00am SSW 8 11 - - - - - - - 29.0 1013.5 0.0
13/08:30am SW 9 11 - - - - - - - 28.4 1013.1 0.0
13/08:00am WSW 11 13 - - - - - - - 27.6 1012.7 0.0
13/07:30am W 10 13 - - - - - - - 26.9 1012.4 0.0
13/07:00am WSW 10 11 - - - - - - - 26.5 1012.1 0.0
13/06:30am WSW 10 11 - - - - - - - 26.5 1011.8 0.0
13/06:00am WSW 11 13 - - - - - - - 26.5 1011.5 0.0
13/05:30am W 11 13 - - - - - - - 26.6 1011.2 0.0
13/05:00am W 11 13 - - - - - - - 26.6 1010.9 0.0
13/04:30am W 10 12 - - - - - - - 26.6 1010.7 0.0
13/04:00am W 11 13 - - - - - - - 26.7 1010.3 0.0
13/03:30am WNW 11 12 - - - - - - - 26.7 1010.1 0.0
13/03:00am WNW 10 12 - - - - - - - 26.7 1010.2 0.0
13/02:30am W 11 14 - - - - - - - 26.7 1010.2 0.0
13/02:00am W 11 13 - - - - - - - 26.8 1010.5 0.0
13/01:30am W 10 11 - - - - - - - 26.9 1010.9 0.0
13/01:00am W 9 11 - - - - - - - 27.0 1011.3 0.0
13/12:30am W 10 13 - - - - - - - 27.1 1011.7 0.0
13/12:00am W 10 11 - - - - - - - 27.2 1012.0 0.0
 
Date/Time
CST
Wind Sea
Height
m
Swell Vis
km
Cloud Weather Temp
°C
Press
hPa
Rain since
9am
mm
Dir  Spd
kts
Gust
kts
Height
m
Period
s
Dir
12/11:30pm W 9 11 - - - - - - - 27.2 1012.4 0.0
12/11:00pm W 8 9 - - - - - - - 27.3 1012.5 0.0
12/10:30pm WSW 9 10 - - - - - - - 27.4 1012.6 0.0
12/10:00pm W 8 10 - - - - - - - 27.4 1012.3 0.0
12/09:30pm W 9 10 - - - - - - - 27.4 1011.9 0.0
12/09:00pm W 9 11 - - - - - - - 27.5 1011.5 0.0
12/08:30pm W 9 11 - - - - - - - 27.5 1011.2 0.0
12/08:00pm WNW 9 11 - - - - - - - 27.6 1010.9 0.0
12/07:30pm NW 11 13 - - - - - - - 27.7 1010.3 0.0
12/07:00pm NW 11 14 - - - - - - - 27.9 1009.9 0.0
12/06:30pm NW 12 14 - - - - - - - 28.5 1009.4 0.0
12/06:00pm NW 12 16 - - - - - - - 29.2 1009.0 0.0
12/05:30pm NW 13 16 - - - - - - - 29.7 1008.7 0.0
12/05:00pm NW 14 17 - - - - - - - 30.1 1008.6 0.0
12/04:30pm NW 15 17 - - - - - - - 30.4 1008.5 0.0
12/04:00pm NW 15 18 - - - - - - - 30.2 1008.8 0.0
12/03:30pm NNW 13 15 - - - - - - - 30.6 1009.2 0.0
12/03:00pm NW 11 14 - - - - - - - 31.0 1009.4 0.0
12/02:30pm NW 10 11 - - - - - - - 30.2 1009.6 0.0
12/02:00pm NW 9 11 - - - - - - - 30.1 1010.1 0.0
12/01:30pm WNW 8 10 - - - - - - - 30.1 1010.4 0.0
12/01:00pm WNW 9 11 - - - - - - - 29.9 1011.0 0.0
12/12:30pm W 8 10 - - - - - - - 30.2 1011.5 0.0
12/12:00pm WSW 7 8 - - - - - - - 29.6 1012.0 0.0
12/11:30am SW 6 8 - - - - - - - 29.7 1012.3 0.0
12/11:00am S 5 6 - - - - - - - 29.2 1012.3 0.0
12/10:30am SSW 5 7 - - - - - - - 29.4 1012.5 0.0
12/10:00am S 5 6 - - - - - - - 29.0 1012.7 0.0
12/09:30am SW 5 6 - - - - - - - 28.7 1012.7 0.0
12/09:00am S 5 6 - - - - - - - 28.3 1012.5 0.0
12/08:30am SSE 5 6 - - - - - - - 28.4 1012.4 0.0
12/08:00am S 5 7 - - - - - - - 27.6 1011.9 0.0
12/07:30am SW 7 8 - - - - - - - 26.8 1011.3 0.0
12/07:00am SW 8 10 - - - - - - - 26.3 1010.9 0.0
12/06:30am SW 8 10 - - - - - - - 26.3 1010.6 0.0
12/06:00am WSW 9 11 - - - - - - - 26.4 1010.5 0.0
12/05:30am WSW 10 12 - - - - - - - 26.6 1010.2 0.0
12/05:00am WSW 11 12 - - - - - - - 26.6 1010.1 0.0
12/04:30am WSW 11 13 - - - - - - - 26.6 1010.0 0.0
12/04:00am W 11 13 - - - - - - - 26.7 1010.0 0.0
12/03:30am W 12 14 - - - - - - - 26.9 1010.1 0.0
12/03:00am W 12 13 - - - - - - - 26.9 1010.3 0.0
12/02:30am W 12 14 - - - - - - - 27.0 1010.6 0.0
12/02:00am W 12 13 - - - - - - - 27.1 1010.7 0.0
12/01:30am W 11 13 - - - - - - - 27.3 1011.2 0.0
12/01:00am W 13 14 - - - - - - - 27.2 1011.3 0.0
12/12:30am W 11 13 - - - - - - - 27.4 1011.5 0.0
12/12:00am W 11 13 - - - - - - - 27.3 1011.8 0.0
 
Date/Time
CST
Wind Sea
Height
m
Swell Vis
km
Cloud Weather Temp
°C
Press
hPa
Rain since
9am
mm
Dir  Spd
kts
Gust
kts
Height
m
Period
s
Dir
11/11:30pm WNW 10 12 - - - - - - - 27.4 1011.9 0.0
11/11:00pm NW 11 12 - - - - - - - 27.4 1012.2 0.0
11/10:30pm NW 10 12 - - - - - - - 27.4 1012.1 0.0
11/10:00pm NW 9 11 - - - - - - - 27.4 1012.0 0.0
11/09:30pm NNW 10 11 - - - - - - - 27.4 1011.7 0.0
11/09:00pm NNW 9 11 - - - - - - - 27.4 1011.5 0.0
11/08:30pm NNW 8 10 - - - - - - - 27.4 1011.3 0.0
11/08:00pm NNW 8 10 - - - - - - - 27.6 1011.0 0.0
11/07:30pm NNW 8 10 - - - - - - - 27.7 1010.6 0.0
11/07:00pm NNW 8 9 - - - - - - - 28.2 1010.3 0.0
11/06:30pm NW 10 11 - - - - - - - 28.8 1009.8 0.0
11/06:00pm NW 9 12 - - - - - - - 29.4 1009.5 0.0
11/05:30pm NW 12 14 - - - - - - - 30.1 1009.2 0.0
11/05:00pm NW 12 14 - - - - - - - 30.1 1009.1 0.0

Other formats

Comma delimited format used in spreadsheet applications
http://www.bom.gov.au/fwo/IDD60701/IDD60701.94102.axf

JavaScript Object Notation format (JSON) in row-major order
http://www.bom.gov.au/fwo/IDD60701/IDD60701.94102.json

Data quality

Most of these data are generated automatically and are frequently updated. Quality checks on data are not normally performed. It is possible for incorrect values to appear. Refer to information at About Latest Weather Observations and please check the disclaimer before using these data.